createdAt,value
2023-03-22T00:00:15.365Z,2.72
2023-03-22T00:02:45.731Z,2.87
2023-03-22T00:05:14.340Z,2.00
2023-03-22T00:07:43.591Z,1.50
2023-03-22T00:10:12.743Z,3.45
2023-03-22T00:12:41.528Z,2.00
2023-03-22T00:15:11.452Z,8.18
2023-03-22T00:17:39.953Z,2.97
2023-03-22T00:20:12.628Z,3.00
2023-03-22T00:22:41.674Z,2.75
2023-03-22T00:25:11.138Z,2.20
2023-03-22T00:27:39.798Z,2.58
2023-03-22T00:30:10.345Z,2.20
2023-03-22T00:32:39.775Z,1.60
2023-03-22T00:35:11.148Z,1.80
2023-03-22T00:37:39.784Z,1.92
2023-03-22T00:40:12.701Z,1.58
2023-03-22T00:42:42.568Z,1.23
2023-03-22T00:45:13.516Z,2.08
2023-03-22T00:47:42.299Z,1.85
2023-03-22T00:50:12.612Z,1.40
2023-03-22T00:52:41.161Z,1.30
2023-03-22T00:55:09.956Z,1.60
2023-03-22T00:57:38.421Z,1.23
2023-03-22T01:00:13.710Z,1.60
2023-03-22T01:02:42.776Z,1.40
2023-03-22T01:05:16.231Z,1.30
2023-03-22T01:07:44.904Z,4.25
2023-03-22T01:10:13.944Z,4.20
2023-03-22T01:12:42.652Z,4.82
2023-03-22T01:15:12.340Z,1.92
2023-03-22T01:17:41.172Z,1.50
2023-03-22T01:20:13.122Z,1.33
2023-03-22T01:22:41.793Z,3.22
2023-03-22T01:25:11.407Z,3.03
2023-03-22T01:27:40.059Z,2.60
2023-03-22T01:30:10.904Z,2.90
2023-03-22T01:32:40.338Z,2.60
2023-03-22T01:35:09.824Z,1.98
2023-03-22T01:37:39.744Z,1.95
2023-03-22T01:40:11.215Z,1.98
2023-03-22T01:42:40.040Z,1.60
2023-03-22T01:45:40.302Z,1.63
2023-03-22T01:48:19.976Z,1.80
2023-03-22T01:51:00.083Z,1.50
2023-03-22T01:53:32.345Z,1.40
2023-03-22T01:56:01.716Z,1.30
2023-03-22T01:58:30.643Z,1.90
2023-03-22T02:01:00.494Z,1.80
2023-03-22T02:03:38.195Z,1.67
2023-03-22T02:06:07.378Z,1.40
2023-03-22T02:08:37.255Z,1.20
2023-03-22T02:11:06.867Z,1.27
2023-03-22T02:14:09.189Z,1.48
2023-03-22T02:16:53.515Z,1.42
2023-03-22T02:20:11.130Z,1.67
2023-03-22T02:23:25.331Z,1.20
2023-03-22T02:26:34.722Z,1.20
2023-03-22T02:29:12.487Z,1.40
2023-03-22T02:32:38.177Z,1.05
2023-03-22T02:35:49.079Z,1.40
2023-03-22T02:39:07.990Z,1.10
2023-03-22T02:41:59.561Z,1.00
2023-03-22T02:44:39.465Z,1.23
2023-03-22T02:47:16.847Z,1.27
2023-03-22T02:49:51.173Z,1.13
2023-03-22T02:52:27.794Z,1.40
2023-03-22T02:55:07.679Z,1.55
2023-03-22T02:57:43.286Z,1.52
2023-03-22T03:00:16.004Z,1.48
2023-03-22T03:02:49.343Z,1.67
2023-03-22T03:05:19.737Z,1.63
2023-03-22T03:07:54.178Z,1.30
2023-03-22T03:10:25.113Z,1.80
2023-03-22T03:12:53.728Z,1.20
2023-03-22T03:15:26.019Z,1.70
2023-03-22T03:18:28.082Z,1.42
2023-03-22T03:21:04.814Z,1.30
2023-03-22T03:23:49.629Z,1.85
2023-03-22T03:26:28.503Z,1.30
2023-03-22T03:29:01.892Z,1.50
2023-03-22T03:31:38.371Z,1.10
2023-03-22T03:34:19.168Z,1.10
2023-03-22T03:36:55.870Z,1.48
2023-03-22T03:39:28.702Z,1.35
2023-03-22T03:42:00.083Z,1.35
2023-03-22T03:44:29.588Z,1.15
2023-03-22T03:46:58.943Z,1.40
2023-03-22T03:49:27.411Z,1.20
2023-03-22T03:51:57.359Z,1.05
2023-03-22T03:54:26.089Z,5.90
2023-03-22T03:56:54.540Z,3.67
2023-03-22T03:59:24.416Z,2.80
2023-03-22T04:01:53.161Z,2.10
2023-03-22T04:04:26.921Z,2.15
2023-03-22T04:06:57.796Z,4.47
2023-03-22T04:09:27.989Z,3.13
2023-03-22T04:11:57.568Z,3.42
2023-03-22T04:14:28.499Z,3.03
2023-03-22T04:16:57.909Z,2.70
2023-03-22T04:19:27.369Z,2.88
2023-03-22T04:21:55.852Z,2.20
2023-03-22T04:24:24.295Z,2.15
2023-03-22T04:26:53.510Z,1.67
2023-03-22T04:29:23.026Z,3.60
2023-03-22T04:31:54.106Z,3.70
2023-03-22T04:34:23.194Z,3.40
2023-03-22T04:36:51.611Z,2.55
2023-03-22T04:39:20.272Z,2.92
2023-03-22T04:41:49.068Z,2.90
2023-03-22T04:44:17.519Z,2.65
2023-03-22T04:46:46.043Z,2.15
2023-03-22T04:49:15.858Z,2.20
2023-03-22T04:51:44.284Z,2.10
2023-03-22T04:54:12.900Z,2.33
2023-03-22T04:56:41.328Z,2.30
2023-03-22T04:59:10.898Z,2.30
2023-03-22T05:01:40.827Z,2.30
2023-03-22T05:04:09.333Z,3.63
2023-03-22T05:06:39.139Z,9.68
2023-03-22T05:09:08.164Z,6.60
2023-03-22T05:11:37.388Z,2.05
2023-03-22T05:14:06.234Z,1.75
2023-03-22T05:16:35.344Z,2.10
2023-03-22T05:19:04.105Z,2.00
2023-03-22T05:21:36.943Z,1.88
2023-03-22T05:24:07.549Z,2.10
2023-03-22T05:26:38.080Z,2.03
2023-03-22T05:29:07.055Z,2.92
2023-03-22T05:31:35.620Z,3.90
2023-03-22T05:34:04.904Z,5.28
2023-03-22T05:36:36.721Z,5.35
2023-03-22T05:39:07.326Z,4.65
2023-03-22T05:41:36.947Z,3.25
2023-03-22T05:44:06.442Z,2.92
2023-03-22T05:46:34.938Z,2.88
2023-03-22T05:49:04.352Z,3.10
2023-03-22T05:51:32.829Z,2.80
2023-03-22T05:54:01.790Z,3.80
2023-03-22T05:56:31.619Z,3.38
2023-03-22T05:59:00.266Z,3.50
2023-03-22T06:01:28.701Z,4.15
2023-03-22T06:03:57.746Z,4.43
2023-03-22T06:06:28.166Z,4.70
2023-03-22T06:09:10.462Z,4.60
2023-03-22T06:11:45.658Z,3.75
2023-03-22T06:14:14.110Z,4.10
2023-03-22T06:16:42.691Z,4.10
2023-03-22T06:19:11.167Z,3.90
2023-03-22T06:21:39.598Z,3.97
2023-03-22T06:24:08.415Z,4.13
2023-03-22T06:26:36.861Z,3.83
2023-03-22T06:29:06.937Z,3.58
2023-03-22T06:31:35.419Z,3.53
2023-03-22T06:34:03.932Z,3.80
2023-03-22T06:36:32.605Z,3.42
2023-03-22T06:39:02.862Z,3.70
2023-03-22T06:41:31.276Z,3.90
2023-03-22T06:43:59.698Z,3.72
2023-03-22T06:46:29.644Z,3.60
2023-03-22T06:48:58.153Z,3.92
2023-03-22T06:51:27.904Z,3.08
2023-03-22T06:53:56.343Z,3.30
2023-03-22T06:56:26.393Z,3.35
2023-03-22T06:58:58.009Z,2.92
2023-03-22T07:01:28.027Z,2.75
2023-03-22T07:03:56.473Z,2.47
2023-03-22T07:06:24.961Z,2.38
2023-03-22T07:08:53.442Z,3.03
2023-03-22T07:11:21.969Z,3.00
2023-03-22T07:13:50.440Z,2.97
2023-03-22T07:16:20.133Z,2.55
2023-03-22T07:18:50.710Z,3.05
2023-03-22T07:21:20.259Z,2.78
2023-03-22T07:23:49.247Z,2.67
2023-03-22T07:26:17.676Z,3.33
2023-03-22T07:28:46.440Z,2.47
2023-03-22T07:31:16.443Z,2.53
2023-03-22T07:33:45.709Z,2.67
2023-03-22T07:36:16.097Z,3.38
2023-03-22T07:38:44.553Z,3.55
2023-03-22T07:41:13.250Z,3.45
2023-03-22T07:43:54.034Z,1.90
2023-03-22T07:46:26.285Z,3.30
2023-03-22T07:48:54.990Z,1.52
2023-03-22T07:51:24.881Z,3.58
2023-03-22T07:53:53.773Z,1.52
2023-03-22T07:56:22.181Z,1.20
2023-03-22T07:58:50.666Z,1.58
2023-03-22T08:01:19.125Z,1.70
2023-03-22T08:03:47.539Z,1.60
2023-03-22T08:06:16.445Z,1.42
2023-03-22T08:08:47.470Z,1.45
2023-03-22T08:11:15.947Z,1.50
2023-03-22T08:13:44.355Z,1.10
2023-03-22T08:16:15.748Z,1.13
2023-03-22T08:18:45.385Z,1.20
2023-03-22T08:21:13.889Z,1.30
2023-03-22T08:23:42.584Z,1.02
2023-03-22T08:26:13.093Z,1.17
2023-03-22T08:28:43.110Z,1.00
2023-03-22T08:31:15.126Z,1.27
2023-03-22T08:33:44.373Z,1.33
2023-03-22T08:36:16.419Z,1.13
2023-03-22T08:38:45.357Z,1.30
2023-03-22T08:41:16.500Z,1.30
2023-03-22T08:43:45.161Z,1.23
2023-03-22T08:46:13.827Z,1.40
2023-03-22T08:48:42.343Z,1.13
2023-03-22T08:51:11.073Z,0.93
2023-03-22T08:53:39.634Z,1.00
2023-03-22T08:56:10.798Z,0.80
2023-03-22T08:58:40.600Z,0.90
2023-03-22T09:01:14.120Z,1.50
2023-03-22T09:03:42.958Z,1.02
2023-03-22T09:06:12.323Z,0.95
2023-03-22T09:08:41.374Z,0.90
2023-03-22T09:11:10.712Z,1.00
2023-03-22T09:13:40.812Z,0.80
2023-03-22T09:16:10.646Z,1.05
2023-03-22T09:18:39.860Z,1.10
2023-03-22T09:21:10.760Z,0.93
2023-03-22T09:23:40.335Z,1.10
2023-03-22T09:26:11.836Z,0.90
2023-03-22T09:28:41.900Z,0.77
2023-03-22T09:31:12.572Z,1.25
2023-03-22T09:33:42.562Z,1.00
2023-03-22T09:36:14.003Z,0.93
2023-03-22T09:38:42.685Z,1.05
2023-03-22T09:41:19.213Z,0.90
2023-03-22T09:43:52.861Z,0.80
2023-03-22T09:46:34.135Z,0.90
2023-03-22T09:49:06.158Z,0.90
2023-03-22T09:51:41.213Z,1.23
2023-03-22T09:54:17.285Z,1.10
2023-03-22T09:56:50.747Z,0.80
2023-03-22T09:59:28.105Z,0.80
2023-03-22T10:02:01.036Z,1.05
2023-03-22T10:04:49.679Z,0.95
2023-03-22T10:07:30.756Z,1.05
2023-03-22T10:10:09.674Z,1.20
2023-03-22T10:12:44.980Z,1.23
2023-03-22T10:15:18.599Z,0.85
2023-03-22T10:17:52.534Z,0.98
2023-03-22T10:20:33.219Z,0.95
2023-03-22T10:23:05.080Z,0.90
2023-03-22T10:25:38.730Z,0.80
2023-03-22T10:28:18.279Z,0.73
2023-03-22T10:30:53.576Z,1.20
2023-03-22T10:33:33.115Z,0.90
2023-03-22T10:36:03.552Z,0.90
2023-03-22T10:38:36.172Z,0.90
2023-03-22T10:41:05.210Z,1.00
2023-03-22T10:43:37.136Z,0.90
2023-03-22T10:46:15.017Z,0.93
2023-03-22T10:48:47.082Z,1.00
2023-03-22T10:51:25.982Z,0.87
2023-03-22T10:53:58.459Z,0.90
2023-03-22T10:56:26.995Z,0.88
2023-03-22T10:58:57.619Z,0.95
2023-03-22T11:01:31.583Z,0.85
2023-03-22T11:04:08.179Z,0.97
2023-03-22T11:06:44.273Z,0.98
2023-03-22T11:09:17.932Z,0.90
2023-03-22T11:11:53.548Z,0.80
2023-03-22T11:14:28.504Z,1.15
2023-03-22T11:17:02.436Z,0.90
2023-03-22T11:19:36.012Z,0.90
2023-03-22T11:22:16.925Z,0.90
2023-03-22T11:24:48.915Z,1.10
2023-03-22T11:27:22.301Z,1.00
2023-03-22T11:29:53.049Z,1.10
2023-03-22T11:32:29.038Z,1.00
2023-03-22T11:35:12.404Z,0.90
2023-03-22T11:37:43.924Z,1.20
2023-03-22T11:40:19.215Z,0.90
2023-03-22T11:42:49.303Z,1.07
2023-03-22T11:45:27.109Z,1.15
2023-03-22T11:48:03.483Z,1.00
2023-03-22T11:50:36.368Z,0.90
2023-03-22T11:53:09.136Z,0.90
2023-03-22T11:55:38.379Z,0.97
2023-03-22T11:58:07.942Z,1.00
2023-03-22T12:00:39.201Z,0.98
2023-03-22T12:03:16.771Z,1.05
2023-03-22T12:05:49.401Z,1.10
2023-03-22T12:08:26.970Z,0.90
2023-03-22T12:11:03.839Z,1.60
2023-03-22T12:13:46.324Z,0.80
2023-03-22T12:16:24.762Z,1.00
2023-03-22T12:19:06.631Z,2.88
2023-03-22T12:21:36.309Z,1.80
2023-03-22T12:24:12.844Z,1.27
2023-03-22T12:26:41.878Z,1.02
2023-03-22T12:29:19.330Z,0.93
2023-03-22T12:32:00.041Z,1.15
2023-03-22T12:34:43.252Z,1.00
2023-03-22T12:37:17.426Z,1.13
2023-03-22T12:39:50.133Z,1.20
2023-03-22T12:42:25.269Z,0.90
2023-03-22T12:45:05.261Z,1.20
2023-03-22T12:47:42.105Z,1.20
2023-03-22T12:50:18.785Z,1.02
2023-03-22T12:52:50.375Z,1.10
2023-03-22T12:55:26.279Z,0.80
2023-03-22T12:57:55.712Z,1.13
2023-03-22T13:00:30.854Z,0.90
2023-03-22T13:03:04.553Z,1.08
2023-03-22T13:05:37.905Z,1.00
2023-03-22T13:08:07.205Z,1.00
2023-03-22T13:11:03.228Z,1.10
2023-03-22T13:13:54.056Z,1.10
2023-03-22T13:16:56.455Z,1.10
2023-03-22T13:19:34.751Z,1.13
2023-03-22T13:22:29.689Z,1.00
2023-03-22T13:25:29.598Z,1.00
2023-03-22T13:28:00.375Z,1.10
2023-03-22T13:30:33.710Z,0.90
2023-03-22T13:33:14.509Z,0.77
2023-03-22T13:35:48.696Z,0.98
2023-03-22T13:38:23.007Z,1.02
2023-03-22T13:40:59.883Z,0.80
2023-03-22T13:43:34.765Z,0.90
2023-03-22T13:46:29.068Z,1.08
2023-03-22T13:49:21.746Z,1.10
2023-03-22T13:51:51.004Z,1.00
2023-03-22T13:54:24.920Z,1.07
2023-03-22T13:56:59.759Z,0.80
2023-03-22T13:59:33.992Z,1.10
2023-03-22T14:02:11.193Z,1.35
2023-03-22T14:04:45.546Z,1.90
2023-03-22T14:07:25.418Z,0.80
2023-03-22T14:10:01.535Z,1.08
2023-03-22T14:12:38.083Z,1.00
2023-03-22T14:15:12.047Z,0.90
2023-03-22T14:17:45.776Z,1.13
2023-03-22T14:20:20.348Z,1.07
